sensor_id;sensor_type;location;lat;lon;timestamp;P1;durP1;ratioP1;P2;durP2;ratioP2
16147;SDS011;8179;59.364;18.018;2023-06-19T00:01:28;517.80;;;493.13;;
16147;SDS011;8179;59.364;18.018;2023-06-19T00:03:54;508.83;;;486.48;;
16147;SDS011;8179;59.364;18.018;2023-06-19T00:06:21;548.35;;;520.72;;
16147;SDS011;8179;59.364;18.018;2023-06-19T00:08:47;574.33;;;545.25;;
16147;SDS011;8179;59.364;18.018;2023-06-19T00:11:14;537.00;;;509.85;;
16147;SDS011;8179;59.364;18.018;2023-06-19T00:13:40;554.88;;;527.13;;
16147;SDS011;8179;59.364;18.018;2023-06-19T00:16:08;567.80;;;539.83;;
16147;SDS011;8179;59.364;18.018;2023-06-19T00:18:35;522.22;;;496.25;;
16147;SDS011;8179;59.364;18.018;2023-06-19T00:21:05;549.33;;;522.08;;
16147;SDS011;8179;59.364;18.018;2023-06-19T00:23:31;549.67;;;520.83;;
16147;SDS011;8179;59.364;18.018;2023-06-19T00:25:57;588.00;;;557.35;;
16147;SDS011;8179;59.364;18.018;2023-06-19T00:28:26;846.20;;;793.03;;
16147;SDS011;8179;59.364;18.018;2023-06-19T00:30:52;722.28;;;680.90;;
16147;SDS011;8179;59.364;18.018;2023-06-19T00:33:20;537.88;;;508.23;;
16147;SDS011;8179;59.364;18.018;2023-06-19T00:35:47;488.00;;;462.75;;
16147;SDS011;8179;59.364;18.018;2023-06-19T00:38:13;536.28;;;508.90;;
16147;SDS011;8179;59.364;18.018;2023-06-19T00:40:40;554.72;;;525.00;;
16147;SDS011;8179;59.364;18.018;2023-06-19T00:43:06;519.35;;;492.80;;
16147;SDS011;8179;59.364;18.018;2023-06-19T00:45:33;532.33;;;504.77;;
16147;SDS011;8179;59.364;18.018;2023-06-19T00:47:59;549.20;;;521.83;;
16147;SDS011;8179;59.364;18.018;2023-06-19T00:50:28;520.30;;;494.60;;
16147;SDS011;8179;59.364;18.018;2023-06-19T00:52:55;755.70;;;709.78;;
16147;SDS011;8179;59.364;18.018;2023-06-19T00:55:23;771.67;;;723.30;;
16147;SDS011;8179;59.364;18.018;2023-06-19T00:57:51;503.40;;;480.55;;
16147;SDS011;8179;59.364;18.018;2023-06-19T01:00:18;516.65;;;491.88;;
16147;SDS011;8179;59.364;18.018;2023-06-19T01:02:45;860.80;;;806.90;;
16147;SDS011;8179;59.364;18.018;2023-06-19T01:05:12;609.30;;;576.38;;
16147;SDS011;8179;59.364;18.018;2023-06-19T01:07:42;639.38;;;604.28;;
16147;SDS011;8179;59.364;18.018;2023-06-19T01:10:10;606.20;;;573.67;;
16147;SDS011;8179;59.364;18.018;2023-06-19T01:12:38;584.58;;;554.35;;
16147;SDS011;8179;59.364;18.018;2023-06-19T01:15:07;588.30;;;558.38;;
16147;SDS011;8179;59.364;18.018;2023-06-19T01:17:35;566.65;;;538.67;;
16147;SDS011;8179;59.364;18.018;2023-06-19T01:20:02;600.40;;;567.40;;
16147;SDS011;8179;59.364;18.018;2023-06-19T01:22:33;839.10;;;780.25;;
16147;SDS011;8179;59.364;18.018;2023-06-19T01:24:59;992.65;;;927.35;;
16147;SDS011;8179;59.364;18.018;2023-06-19T01:27:26;850.45;;;797.97;;
16147;SDS011;8179;59.364;18.018;2023-06-19T01:29:55;652.25;;;616.88;;
16147;SDS011;8179;59.364;18.018;2023-06-19T01:32:23;598.75;;;568.05;;
16147;SDS011;8179;59.364;18.018;2023-06-19T01:34:50;959.08;;;892.83;;
16147;SDS011;8179;59.364;18.018;2023-06-19T01:37:18;591.05;;;559.53;;
16147;SDS011;8179;59.364;18.018;2023-06-19T01:39:46;927.58;;;861.75;;
16147;SDS011;8179;59.364;18.018;2023-06-19T01:42:13;772.55;;;725.38;;
16147;SDS011;8179;59.364;18.018;2023-06-19T01:44:42;562.05;;;536.25;;
16147;SDS011;8179;59.364;18.018;2023-06-19T01:47:09;634.05;;;599.53;;
16147;SDS011;8179;59.364;18.018;2023-06-19T01:49:36;703.53;;;662.72;;
16147;SDS011;8179;59.364;18.018;2023-06-19T01:52:02;832.75;;;780.38;;
16147;SDS011;8179;59.364;18.018;2023-06-19T01:54:29;875.95;;;822.70;;
16147;SDS011;8179;59.364;18.018;2023-06-19T01:56:57;1043.65;;;973.17;;
16147;SDS011;8179;59.364;18.018;2023-06-19T01:59:24;1034.22;;;966.58;;
16147;SDS011;8179;59.364;18.018;2023-06-19T02:01:50;815.78;;;763.63;;
16147;SDS011;8179;59.364;18.018;2023-06-19T02:04:17;1017.28;;;949.72;;
16147;SDS011;8179;59.364;18.018;2023-06-19T02:06:43;941.53;;;883.92;;
16147;SDS011;8179;59.364;18.018;2023-06-19T02:09:10;740.58;;;696.72;;
16147;SDS011;8179;59.364;18.018;2023-06-19T02:11:36;1069.20;;;993.17;;
16147;SDS011;8179;59.364;18.018;2023-06-19T02:14:04;748.10;;;705.72;;
16147;SDS011;8179;59.364;18.018;2023-06-19T02:16:30;567.03;;;536.50;;
16147;SDS011;8179;59.364;18.018;2023-06-19T02:18:57;918.92;;;859.65;;
16147;SDS011;8179;59.364;18.018;2023-06-19T02:21:24;944.38;;;887.22;;
16147;SDS011;8179;59.364;18.018;2023-06-19T02:23:51;708.45;;;669.80;;
16147;SDS011;8179;59.364;18.018;2023-06-19T02:26:17;562.20;;;532.60;;
16147;SDS011;8179;59.364;18.018;2023-06-19T02:28:44;979.42;;;921.55;;
16147;SDS011;8179;59.364;18.018;2023-06-19T02:31:12;766.90;;;723.97;;
16147;SDS011;8179;59.364;18.018;2023-06-19T02:33:38;712.22;;;669.78;;
16147;SDS011;8179;59.364;18.018;2023-06-19T02:36:05;788.45;;;742.03;;
16147;SDS011;8179;59.364;18.018;2023-06-19T02:38:31;690.90;;;651.08;;
16147;SDS011;8179;59.364;18.018;2023-06-19T02:40:58;868.53;;;813.13;;
16147;SDS011;8179;59.364;18.018;2023-06-19T02:43:26;897.30;;;845.65;;
16147;SDS011;8179;59.364;18.018;2023-06-19T02:45:52;878.90;;;823.92;;
16147;SDS011;8179;59.364;18.018;2023-06-19T02:48:20;776.08;;;731.88;;
16147;SDS011;8179;59.364;18.018;2023-06-19T02:50:48;604.65;;;569.55;;
16147;SDS011;8179;59.364;18.018;2023-06-19T02:53:15;712.38;;;673.97;;
16147;SDS011;8179;59.364;18.018;2023-06-19T02:55:42;949.22;;;891.00;;
16147;SDS011;8179;59.364;18.018;2023-06-19T02:58:08;854.70;;;803.05;;
16147;SDS011;8179;59.364;18.018;2023-06-19T03:00:35;730.35;;;687.03;;
16147;SDS011;8179;59.364;18.018;2023-06-19T03:03:02;996.40;;;933.42;;
16147;SDS011;8179;59.364;18.018;2023-06-19T03:05:30;1060.90;;;992.22;;
16147;SDS011;8179;59.364;18.018;2023-06-19T03:07:56;838.70;;;787.35;;
16147;SDS011;8179;59.364;18.018;2023-06-19T03:10:23;656.20;;;619.58;;
16147;SDS011;8179;59.364;18.018;2023-06-19T03:12:49;950.50;;;892.85;;
16147;SDS011;8179;59.364;18.018;2023-06-19T03:15:16;840.00;;;789.72;;
16147;SDS011;8179;59.364;18.018;2023-06-19T03:17:42;723.25;;;684.10;;
16147;SDS011;8179;59.364;18.018;2023-06-19T03:20:09;987.20;;;927.58;;
16147;SDS011;8179;59.364;18.018;2023-06-19T03:22:39;822.83;;;775.30;;
16147;SDS011;8179;59.364;18.018;2023-06-19T03:25:06;763.10;;;716.90;;
16147;SDS011;8179;59.364;18.018;2023-06-19T03:27:33;851.28;;;802.50;;
16147;SDS011;8179;59.364;18.018;2023-06-19T03:30:00;899.00;;;844.60;;
16147;SDS011;8179;59.364;18.018;2023-06-19T03:32:28;1064.15;;;995.00;;
16147;SDS011;8179;59.364;18.018;2023-06-19T03:34:55;807.13;;;761.42;;
16147;SDS011;8179;59.364;18.018;2023-06-19T03:37:21;944.08;;;888.10;;
16147;SDS011;8179;59.364;18.018;2023-06-19T03:39:49;720.80;;;681.20;;
16147;SDS011;8179;59.364;18.018;2023-06-19T03:42:16;798.72;;;753.85;;
16147;SDS011;8179;59.364;18.018;2023-06-19T03:44:42;751.65;;;710.35;;
16147;SDS011;8179;59.364;18.018;2023-06-19T03:47:09;849.63;;;801.15;;
16147;SDS011;8179;59.364;18.018;2023-06-19T03:49:35;989.78;;;928.38;;
16147;SDS011;8179;59.364;18.018;2023-06-19T03:52:02;846.38;;;795.92;;
16147;SDS011;8179;59.364;18.018;2023-06-19T03:54:29;911.50;;;857.35;;
16147;SDS011;8179;59.364;18.018;2023-06-19T03:56:56;977.70;;;917.65;;
16147;SDS011;8179;59.364;18.018;2023-06-19T03:59:23;1021.20;;;956.28;;
16147;SDS011;8179;59.364;18.018;2023-06-19T04:01:49;961.20;;;902.80;;
16147;SDS011;8179;59.364;18.018;2023-06-19T04:04:16;1078.97;;;998.20;;
16147;SDS011;8179;59.364;18.018;2023-06-19T04:06:42;961.72;;;902.22;;
16147;SDS011;8179;59.364;18.018;2023-06-19T04:09:09;1043.68;;;976.65;;
16147;SDS011;8179;59.364;18.018;2023-06-19T04:11:35;1064.05;;;989.22;;
16147;SDS011;8179;59.364;18.018;2023-06-19T04:14:03;1124.38;;;999.90;;
16147;SDS011;8179;59.364;18.018;2023-06-19T04:16:30;1190.57;;;999.90;;
16147;SDS011;8179;59.364;18.018;2023-06-19T04:18:56;1148.80;;;999.90;;
16147;SDS011;8179;59.364;18.018;2023-06-19T04:21:23;1143.70;;;999.90;;
16147;SDS011;8179;59.364;18.018;2023-06-19T04:23:49;1150.13;;;999.90;;
16147;SDS011;8179;59.364;18.018;2023-06-19T04:26:16;1132.70;;;999.90;;
16147;SDS011;8179;59.364;18.018;2023-06-19T04:28:43;1153.25;;;999.90;;
16147;SDS011;8179;59.364;18.018;2023-06-19T04:31:11;1222.15;;;999.90;;
16147;SDS011;8179;59.364;18.018;2023-06-19T04:33:37;1197.20;;;999.90;;
16147;SDS011;8179;59.364;18.018;2023-06-19T04:36:05;1196.10;;;999.90;;
16147;SDS011;8179;59.364;18.018;2023-06-19T04:38:31;1147.25;;;999.90;;
16147;SDS011;8179;59.364;18.018;2023-06-19T04:40:58;1123.70;;;999.90;;
16147;SDS011;8179;59.364;18.018;2023-06-19T04:43:24;1214.40;;;999.90;;
16147;SDS011;8179;59.364;18.018;2023-06-19T04:45:51;1203.03;;;999.90;;
16147;SDS011;8179;59.364;18.018;2023-06-19T04:48:20;1229.90;;;999.90;;
16147;SDS011;8179;59.364;18.018;2023-06-19T04:50:49;1212.28;;;999.90;;
16147;SDS011;8179;59.364;18.018;2023-06-19T04:53:16;1242.78;;;999.90;;
16147;SDS011;8179;59.364;18.018;2023-06-19T04:55:43;1196.20;;;999.90;;
16147;SDS011;8179;59.364;18.018;2023-06-19T04:58:10;1172.35;;;999.90;;
16147;SDS011;8179;59.364;18.018;2023-06-19T05:00:36;1246.47;;;999.90;;
16147;SDS011;8179;59.364;18.018;2023-06-19T05:03:03;1248.88;;;999.90;;
16147;SDS011;8179;59.364;18.018;2023-06-19T05:05:31;1225.25;;;999.90;;
16147;SDS011;8179;59.364;18.018;2023-06-19T05:07:57;1199.10;;;999.90;;
16147;SDS011;8179;59.364;18.018;2023-06-19T05:10:24;1213.85;;;999.90;;
16147;SDS011;8179;59.364;18.018;2023-06-19T05:12:50;1239.68;;;999.90;;
16147;SDS011;8179;59.364;18.018;2023-06-19T05:15:17;1237.05;;;999.90;;
16147;SDS011;8179;59.364;18.018;2023-06-19T05:17:43;1281.88;;;999.90;;
16147;SDS011;8179;59.364;18.018;2023-06-19T05:20:11;1221.55;;;999.90;;
16147;SDS011;8179;59.364;18.018;2023-06-19T05:22:39;1337.13;;;999.90;;
16147;SDS011;8179;59.364;18.018;2023-06-19T05:25:06;1344.20;;;999.90;;
16147;SDS011;8179;59.364;18.018;2023-06-19T05:27:33;1396.32;;;999.90;;
16147;SDS011;8179;59.364;18.018;2023-06-19T05:29:59;1357.90;;;999.90;;
16147;SDS011;8179;59.364;18.018;2023-06-19T05:32:26;1316.10;;;999.90;;
16147;SDS011;8179;59.364;18.018;2023-06-19T05:34:52;1382.22;;;999.90;;
16147;SDS011;8179;59.364;18.018;2023-06-19T05:37:19;1325.15;;;999.90;;
16147;SDS011;8179;59.364;18.018;2023-06-19T05:39:48;1422.97;;;999.90;;
16147;SDS011;8179;59.364;18.018;2023-06-19T05:42:15;1366.20;;;999.90;;
16147;SDS011;8179;59.364;18.018;2023-06-19T05:44:42;1415.65;;;999.90;;
16147;SDS011;8179;59.364;18.018;2023-06-19T05:47:08;1361.03;;;999.90;;
16147;SDS011;8179;59.364;18.018;2023-06-19T05:49:35;1085.95;;;998.63;;
16147;SDS011;8179;59.364;18.018;2023-06-19T05:52:01;1363.50;;;999.90;;
16147;SDS011;8179;59.364;18.018;2023-06-19T05:54:28;1358.60;;;999.90;;
16147;SDS011;8179;59.364;18.018;2023-06-19T05:56:56;1343.95;;;999.90;;
16147;SDS011;8179;59.364;18.018;2023-06-19T05:59:22;1378.28;;;999.90;;
16147;SDS011;8179;59.364;18.018;2023-06-19T06:01:49;1406.05;;;999.90;;
16147;SDS011;8179;59.364;18.018;2023-06-19T06:04:18;1364.43;;;999.90;;
16147;SDS011;8179;59.364;18.018;2023-06-19T06:06:47;1343.97;;;999.90;;
16147;SDS011;8179;59.364;18.018;2023-06-19T06:09:14;1339.78;;;999.90;;
16147;SDS011;8179;59.364;18.018;2023-06-19T06:11:41;1357.20;;;999.90;;
16147;SDS011;8179;59.364;18.018;2023-06-19T06:14:09;1318.72;;;999.90;;
16147;SDS011;8179;59.364;18.018;2023-06-19T06:16:35;1381.72;;;999.90;;
16147;SDS011;8179;59.364;18.018;2023-06-19T06:19:02;1406.85;;;999.90;;
16147;SDS011;8179;59.364;18.018;2023-06-19T06:21:29;1371.40;;;999.90;;
16147;SDS011;8179;59.364;18.018;2023-06-19T06:23:55;1377.53;;;999.90;;
16147;SDS011;8179;59.364;18.018;2023-06-19T06:26:22;1303.78;;;999.90;;
16147;SDS011;8179;59.364;18.018;2023-06-19T06:28:48;1303.32;;;999.90;;
16147;SDS011;8179;59.364;18.018;2023-06-19T06:31:16;1058.60;;;982.88;;
16147;SDS011;8179;59.364;18.018;2023-06-19T06:33:43;1321.85;;;999.90;;
16147;SDS011;8179;59.364;18.018;2023-06-19T06:36:09;1425.50;;;999.90;;
16147;SDS011;8179;59.364;18.018;2023-06-19T06:38:36;1347.60;;;999.90;;
16147;SDS011;8179;59.364;18.018;2023-06-19T06:41:02;1394.72;;;999.90;;
16147;SDS011;8179;59.364;18.018;2023-06-19T06:43:29;1454.75;;;999.90;;
16147;SDS011;8179;59.364;18.018;2023-06-19T06:45:55;1473.25;;;999.90;;
16147;SDS011;8179;59.364;18.018;2023-06-19T06:48:23;1425.03;;;999.90;;
16147;SDS011;8179;59.364;18.018;2023-06-19T06:50:50;1209.88;;;999.90;;
16147;SDS011;8179;59.364;18.018;2023-06-19T06:53:17;1477.68;;;999.90;;
16147;SDS011;8179;59.364;18.018;2023-06-19T06:55:44;1071.93;;;992.35;;
16147;SDS011;8179;59.364;18.018;2023-06-19T06:58:10;1435.70;;;999.90;;
16147;SDS011;8179;59.364;18.018;2023-06-19T07:00:39;1408.88;;;999.90;;
16147;SDS011;8179;59.364;18.018;2023-06-19T07:03:05;1424.95;;;999.90;;
16147;SDS011;8179;59.364;18.018;2023-06-19T07:05:34;1486.47;;;999.90;;
16147;SDS011;8179;59.364;18.018;2023-06-19T07:08:01;1386.53;;;999.90;;
16147;SDS011;8179;59.364;18.018;2023-06-19T07:10:28;1151.45;;;999.90;;
16147;SDS011;8179;59.364;18.018;2023-06-19T07:12:55;1403.63;;;999.90;;
16147;SDS011;8179;59.364;18.018;2023-06-19T07:15:22;1437.95;;;999.90;;
16147;SDS011;8179;59.364;18.018;2023-06-19T07:17:48;1188.97;;;999.90;;
16147;SDS011;8179;59.364;18.018;2023-06-19T07:20:15;1146.18;;;999.90;;
16147;SDS011;8179;59.364;18.018;2023-06-19T07:22:43;1399.93;;;999.90;;
16147;SDS011;8179;59.364;18.018;2023-06-19T07:25:10;1246.15;;;999.90;;
16147;SDS011;8179;59.364;18.018;2023-06-19T07:27:37;1441.72;;;999.90;;
16147;SDS011;8179;59.364;18.018;2023-06-19T07:30:04;1032.18;;;960.42;;
16147;SDS011;8179;59.364;18.018;2023-06-19T07:32:30;869.60;;;818.60;;
16147;SDS011;8179;59.364;18.018;2023-06-19T07:34:57;1334.53;;;999.90;;
16147;SDS011;8179;59.364;18.018;2023-06-19T07:37:24;1373.32;;;999.90;;
16147;SDS011;8179;59.364;18.018;2023-06-19T07:39:53;1395.97;;;999.90;;
16147;SDS011;8179;59.364;18.018;2023-06-19T07:42:19;1412.57;;;999.90;;
16147;SDS011;8179;59.364;18.018;2023-06-19T07:44:46;1311.78;;;999.90;;
16147;SDS011;8179;59.364;18.018;2023-06-19T07:47:13;1215.28;;;999.90;;
16147;SDS011;8179;59.364;18.018;2023-06-19T07:49:40;1439.15;;;999.90;;
16147;SDS011;8179;59.364;18.018;2023-06-19T07:52:07;1392.35;;;999.90;;
16147;SDS011;8179;59.364;18.018;2023-06-19T07:54:35;1397.57;;;999.90;;
16147;SDS011;8179;59.364;18.018;2023-06-19T07:57:03;1320.03;;;999.90;;
16147;SDS011;8179;59.364;18.018;2023-06-19T07:59:30;1292.03;;;999.90;;
16147;SDS011;8179;59.364;18.018;2023-06-19T08:01:56;1343.50;;;999.90;;
16147;SDS011;8179;59.364;18.018;2023-06-19T08:04:23;1159.78;;;999.90;;
16147;SDS011;8179;59.364;18.018;2023-06-19T08:06:49;1321.20;;;999.90;;
16147;SDS011;8179;59.364;18.018;2023-06-19T08:09:16;1428.88;;;999.90;;
16147;SDS011;8179;59.364;18.018;2023-06-19T08:11:42;1125.15;;;999.90;;
16147;SDS011;8179;59.364;18.018;2023-06-19T08:14:10;1284.95;;;999.90;;
16147;SDS011;8179;59.364;18.018;2023-06-19T08:16:37;1205.90;;;999.90;;
16147;SDS011;8179;59.364;18.018;2023-06-19T08:19:03;1346.18;;;999.90;;
16147;SDS011;8179;59.364;18.018;2023-06-19T08:21:30;1326.47;;;999.90;;
16147;SDS011;8179;59.364;18.018;2023-06-19T08:23:56;1385.03;;;999.90;;
16147;SDS011;8179;59.364;18.018;2023-06-19T08:26:23;1268.18;;;999.90;;
16147;SDS011;8179;59.364;18.018;2023-06-19T08:28:50;947.13;;;875.50;;
16147;SDS011;8179;59.364;18.018;2023-06-19T08:31:18;1314.25;;;999.90;;
16147;SDS011;8179;59.364;18.018;2023-06-19T08:33:46;1326.82;;;999.90;;
16147;SDS011;8179;59.364;18.018;2023-06-19T08:36:13;1621.30;;;999.90;;
16147;SDS011;8179;59.364;18.018;2023-06-19T08:38:40;1181.50;;;999.90;;
16147;SDS011;8179;59.364;18.018;2023-06-19T08:41:06;1390.32;;;999.90;;
16147;SDS011;8179;59.364;18.018;2023-06-19T08:43:33;1069.88;;;987.20;;
16147;SDS011;8179;59.364;18.018;2023-06-19T08:46:03;1050.85;;;969.85;;
16147;SDS011;8179;59.364;18.018;2023-06-19T08:48:35;1461.50;;;999.90;;
16147;SDS011;8179;59.364;18.018;2023-06-19T08:51:02;1359.55;;;999.90;;
16147;SDS011;8179;59.364;18.018;2023-06-19T08:53:29;1405.78;;;999.90;;
16147;SDS011;8179;59.364;18.018;2023-06-19T08:55:55;1436.05;;;999.90;;
16147;SDS011;8179;59.364;18.018;2023-06-19T08:58:22;879.20;;;822.20;;
16147;SDS011;8179;59.364;18.018;2023-06-19T09:00:49;1226.78;;;999.90;;
16147;SDS011;8179;59.364;18.018;2023-06-19T09:03:19;1149.13;;;999.90;;
16147;SDS011;8179;59.364;18.018;2023-06-19T09:05:47;1355.20;;;999.90;;
16147;SDS011;8179;59.364;18.018;2023-06-19T09:08:16;919.65;;;847.20;;
16147;SDS011;8179;59.364;18.018;2023-06-19T09:10:42;1386.40;;;999.90;;
16147;SDS011;8179;59.364;18.018;2023-06-19T09:13:09;1407.13;;;999.90;;
16147;SDS011;8179;59.364;18.018;2023-06-19T09:15:36;518.78;;;494.35;;
16147;SDS011;8179;59.364;18.018;2023-06-19T09:18:03;1198.13;;;999.90;;
16147;SDS011;8179;59.364;18.018;2023-06-19T09:20:29;850.22;;;793.80;;
16147;SDS011;8179;59.364;18.018;2023-06-19T09:22:57;878.42;;;824.28;;
16147;SDS011;8179;59.364;18.018;2023-06-19T09:25:24;1046.40;;;935.22;;
16147;SDS011;8179;59.364;18.018;2023-06-19T09:27:52;769.35;;;720.17;;
16147;SDS011;8179;59.364;18.018;2023-06-19T09:30:18;1227.55;;;999.90;;
16147;SDS011;8179;59.364;18.018;2023-06-19T09:32:45;881.85;;;821.97;;
16147;SDS011;8179;59.364;18.018;2023-06-19T09:35:11;719.03;;;679.25;;
16147;SDS011;8179;59.364;18.018;2023-06-19T09:37:38;1426.80;;;999.90;;
16147;SDS011;8179;59.364;18.018;2023-06-19T09:40:07;1550.30;;;999.90;;
16147;SDS011;8179;59.364;18.018;2023-06-19T09:42:36;1450.75;;;999.90;;
16147;SDS011;8179;59.364;18.018;2023-06-19T09:45:03;1304.93;;;999.90;;
16147;SDS011;8179;59.364;18.018;2023-06-19T09:47:30;1353.13;;;999.90;;
16147;SDS011;8179;59.364;18.018;2023-06-19T09:49:57;1771.38;;;999.90;;
16147;SDS011;8179;59.364;18.018;2023-06-19T09:52:25;1101.43;;;979.78;;
16147;SDS011;8179;59.364;18.018;2023-06-19T09:54:53;1448.57;;;999.90;;
16147;SDS011;8179;59.364;18.018;2023-06-19T09:57:21;727.22;;;681.58;;
16147;SDS011;8179;59.364;18.018;2023-06-19T09:59:48;1536.03;;;999.90;;
16147;SDS011;8179;59.364;18.018;2023-06-19T10:02:16;1380.47;;;999.90;;
16147;SDS011;8179;59.364;18.018;2023-06-19T10:04:44;1378.70;;;999.90;;
16147;SDS011;8179;59.364;18.018;2023-06-19T10:07:18;1211.93;;;999.90;;
16147;SDS011;8179;59.364;18.018;2023-06-19T10:10:00;1302.30;;;999.90;;
16147;SDS011;8179;59.364;18.018;2023-06-19T10:12:38;1206.55;;;999.90;;
16147;SDS011;8179;59.364;18.018;2023-06-19T10:15:12;1518.07;;;999.90;;
16147;SDS011;8179;59.364;18.018;2023-06-19T10:17:42;710.40;;;668.70;;
16147;SDS011;8179;59.364;18.018;2023-06-19T10:20:18;1349.22;;;999.90;;
16147;SDS011;8179;59.364;18.018;2023-06-19T10:22:50;1421.43;;;999.90;;
16147;SDS011;8179;59.364;18.018;2023-06-19T10:25:19;1326.82;;;999.90;;
16147;SDS011;8179;59.364;18.018;2023-06-19T10:27:47;1151.93;;;999.90;;
16147;SDS011;8179;59.364;18.018;2023-06-19T10:30:17;1243.85;;;999.90;;
16147;SDS011;8179;59.364;18.018;2023-06-19T10:32:44;1220.95;;;999.90;;
16147;SDS011;8179;59.364;18.018;2023-06-19T10:35:10;1409.50;;;999.90;;
16147;SDS011;8179;59.364;18.018;2023-06-19T10:37:37;1214.55;;;999.90;;
16147;SDS011;8179;59.364;18.018;2023-06-19T10:40:04;1393.47;;;999.90;;
16147;SDS011;8179;59.364;18.018;2023-06-19T10:42:34;1408.70;;;999.90;;
16147;SDS011;8179;59.364;18.018;2023-06-19T10:45:04;1415.50;;;999.90;;
16147;SDS011;8179;59.364;18.018;2023-06-19T10:47:32;1450.25;;;999.90;;
16147;SDS011;8179;59.364;18.018;2023-06-19T10:49:58;1433.78;;;999.90;;
16147;SDS011;8179;59.364;18.018;2023-06-19T10:52:25;1933.75;;;999.90;;
16147;SDS011;8179;59.364;18.018;2023-06-19T10:54:54;1871.45;;;999.90;;
16147;SDS011;8179;59.364;18.018;2023-06-19T10:57:26;1631.82;;;999.90;;
16147;SDS011;8179;59.364;18.018;2023-06-19T10:59:52;915.42;;;847.50;;
16147;SDS011;8179;59.364;18.018;2023-06-19T11:02:20;1467.38;;;999.90;;
16147;SDS011;8179;59.364;18.018;2023-06-19T11:04:47;1497.78;;;999.90;;
16147;SDS011;8179;59.364;18.018;2023-06-19T11:07:13;1520.05;;;999.90;;
16147;SDS011;8179;59.364;18.018;2023-06-19T11:09:40;1670.38;;;999.90;;
16147;SDS011;8179;59.364;18.018;2023-06-19T11:12:07;1538.80;;;999.90;;
16147;SDS011;8179;59.364;18.018;2023-06-19T11:14:34;1829.13;;;999.90;;
16147;SDS011;8179;59.364;18.018;2023-06-19T11:17:05;1999.90;;;999.90;;
16147;SDS011;8179;59.364;18.018;2023-06-19T11:19:33;1837.78;;;999.90;;
16147;SDS011;8179;59.364;18.018;2023-06-19T11:21:59;1999.90;;;999.90;;
16147;SDS011;8179;59.364;18.018;2023-06-19T11:24:28;1222.65;;;999.90;;
16147;SDS011;8179;59.364;18.018;2023-06-19T11:26:55;470.38;;;452.33;;
16147;SDS011;8179;59.364;18.018;2023-06-19T11:29:24;490.95;;;472.17;;
16147;SDS011;8179;59.364;18.018;2023-06-19T11:31:51;483.02;;;464.00;;
16147;SDS011;8179;59.364;18.018;2023-06-19T11:34:19;527.95;;;506.90;;
16147;SDS011;8179;59.364;18.018;2023-06-19T11:36:46;515.38;;;494.92;;
16147;SDS011;8179;59.364;18.018;2023-06-19T11:39:14;525.75;;;503.38;;
16147;SDS011;8179;59.364;18.018;2023-06-19T11:41:41;455.13;;;438.13;;
16147;SDS011;8179;59.364;18.018;2023-06-19T11:44:07;481.35;;;463.05;;
16147;SDS011;8179;59.364;18.018;2023-06-19T11:46:35;464.20;;;446.13;;
16147;SDS011;8179;59.364;18.018;2023-06-19T11:49:11;404.20;;;389.13;;
16147;SDS011;8179;59.364;18.018;2023-06-19T11:51:38;376.55;;;363.13;;
16147;SDS011;8179;59.364;18.018;2023-06-19T11:54:07;402.48;;;388.40;;
16147;SDS011;8179;59.364;18.018;2023-06-19T11:56:34;380.55;;;366.80;;
16147;SDS011;8179;59.364;18.018;2023-06-19T11:59:01;375.77;;;362.00;;
16147;SDS011;8179;59.364;18.018;2023-06-19T12:01:28;531.63;;;506.00;;
16147;SDS011;8179;59.364;18.018;2023-06-19T12:03:54;330.05;;;318.52;;
16147;SDS011;8179;59.364;18.018;2023-06-19T12:06:21;298.50;;;287.85;;
16147;SDS011;8179;59.364;18.018;2023-06-19T12:08:47;280.95;;;270.85;;
16147;SDS011;8179;59.364;18.018;2023-06-19T12:11:15;220.25;;;212.05;;
16147;SDS011;8179;59.364;18.018;2023-06-19T12:13:42;178.43;;;171.93;;
16147;SDS011;8179;59.364;18.018;2023-06-19T12:16:09;192.43;;;185.50;;
16147;SDS011;8179;59.364;18.018;2023-06-19T12:18:36;198.00;;;191.18;;
16147;SDS011;8179;59.364;18.018;2023-06-19T12:21:02;151.45;;;145.73;;
16147;SDS011;8179;59.364;18.018;2023-06-19T12:23:29;187.98;;;181.02;;
16147;SDS011;8179;59.364;18.018;2023-06-19T12:25:56;178.10;;;171.75;;
16147;SDS011;8179;59.364;18.018;2023-06-19T12:28:25;165.63;;;159.75;;
16147;SDS011;8179;59.364;18.018;2023-06-19T12:30:52;153.10;;;147.40;;
16147;SDS011;8179;59.364;18.018;2023-06-19T12:33:21;1285.63;;;999.90;;
16147;SDS011;8179;59.364;18.018;2023-06-19T12:35:47;1214.20;;;999.90;;
16147;SDS011;8179;59.364;18.018;2023-06-19T12:38:14;1145.50;;;999.90;;
16147;SDS011;8179;59.364;18.018;2023-06-19T12:40:40;1056.55;;;981.30;;
16147;SDS011;8179;59.364;18.018;2023-06-19T12:43:07;1220.15;;;999.90;;
16147;SDS011;8179;59.364;18.018;2023-06-19T12:45:35;1337.78;;;999.90;;
16147;SDS011;8179;59.364;18.018;2023-06-19T12:48:02;1275.78;;;999.90;;
16147;SDS011;8179;59.364;18.018;2023-06-19T12:50:28;1342.15;;;999.90;;
16147;SDS011;8179;59.364;18.018;2023-06-19T12:52:55;1327.45;;;999.90;;
16147;SDS011;8179;59.364;18.018;2023-06-19T12:55:21;1351.05;;;999.90;;
16147;SDS011;8179;59.364;18.018;2023-06-19T12:57:48;1338.07;;;999.90;;
16147;SDS011;8179;59.364;18.018;2023-06-19T13:00:14;1364.97;;;999.90;;
16147;SDS011;8179;59.364;18.018;2023-06-19T13:02:42;1390.25;;;999.90;;
16147;SDS011;8179;59.364;18.018;2023-06-19T13:05:11;1357.78;;;999.90;;
16147;SDS011;8179;59.364;18.018;2023-06-19T13:07:37;1395.93;;;999.90;;
16147;SDS011;8179;59.364;18.018;2023-06-19T13:10:04;1374.60;;;999.90;;
16147;SDS011;8179;59.364;18.018;2023-06-19T13:12:31;1390.20;;;999.90;;
16147;SDS011;8179;59.364;18.018;2023-06-19T13:14:58;1425.28;;;999.90;;
16147;SDS011;8179;59.364;18.018;2023-06-19T13:17:24;1407.45;;;999.90;;
16147;SDS011;8179;59.364;18.018;2023-06-19T13:19:52;1499.85;;;999.90;;
16147;SDS011;8179;59.364;18.018;2023-06-19T13:22:18;1441.88;;;999.90;;
16147;SDS011;8179;59.364;18.018;2023-06-19T13:24:45;1377.40;;;999.90;;
16147;SDS011;8179;59.364;18.018;2023-06-19T13:27:11;1361.70;;;999.90;;
16147;SDS011;8179;59.364;18.018;2023-06-19T13:29:38;1429.47;;;999.90;;
16147;SDS011;8179;59.364;18.018;2023-06-19T13:32:06;1445.30;;;999.90;;
16147;SDS011;8179;59.364;18.018;2023-06-19T13:34:32;1408.65;;;999.90;;
16147;SDS011;8179;59.364;18.018;2023-06-19T13:37:00;1444.65;;;999.90;;
16147;SDS011;8179;59.364;18.018;2023-06-19T13:39:27;1423.32;;;999.90;;
16147;SDS011;8179;59.364;18.018;2023-06-19T13:41:55;1430.55;;;999.90;;
16147;SDS011;8179;59.364;18.018;2023-06-19T13:44:22;1433.40;;;999.90;;
16147;SDS011;8179;59.364;18.018;2023-06-19T13:46:48;1444.00;;;999.90;;
16147;SDS011;8179;59.364;18.018;2023-06-19T13:49:15;1336.43;;;999.90;;